createdAt,value
2018-11-03T00:00:46.210Z,0.00
2018-11-03T00:01:46.163Z,0.00
2018-11-03T00:02:46.118Z,0.00
2018-11-03T00:03:46.070Z,0.00
2018-11-03T00:04:46.029Z,0.00
2018-11-03T00:05:45.977Z,0.00
2018-11-03T00:06:45.930Z,0.00
2018-11-03T00:07:45.889Z,0.00
2018-11-03T00:08:45.840Z,0.00
2018-11-03T00:09:45.796Z,0.00
2018-11-03T00:10:45.745Z,0.00
2018-11-03T00:11:45.699Z,0.00
2018-11-03T00:12:45.657Z,0.00
2018-11-03T00:13:45.605Z,0.00
2018-11-03T00:14:45.667Z,0.00
2018-11-03T00:15:45.519Z,0.00
2018-11-03T00:16:45.471Z,0.00
2018-11-03T00:17:45.425Z,0.00
2018-11-03T00:18:45.374Z,0.00
2018-11-03T00:19:45.327Z,0.00
2018-11-03T00:20:45.282Z,0.00
2018-11-03T00:21:45.236Z,0.00
2018-11-03T00:22:45.190Z,0.00
2018-11-03T00:23:45.143Z,0.00
2018-11-03T00:24:45.096Z,0.00
2018-11-03T00:25:45.049Z,0.00
2018-11-03T00:26:45.003Z,0.00
2018-11-03T00:27:44.956Z,0.00
2018-11-03T00:28:44.910Z,0.00
2018-11-03T00:29:44.863Z,0.00
2018-11-03T00:30:44.817Z,0.00
2018-11-03T00:31:44.770Z,0.00
2018-11-03T00:32:44.729Z,0.00
2018-11-03T00:33:44.679Z,0.00
2018-11-03T00:34:44.632Z,0.00
2018-11-03T00:35:44.584Z,0.00
2018-11-03T00:36:44.540Z,0.00
2018-11-03T00:37:44.495Z,0.00
2018-11-03T00:38:44.555Z,0.00
2018-11-03T00:39:44.402Z,0.00
2018-11-03T00:40:44.353Z,0.00
2018-11-03T00:41:44.309Z,0.00
2018-11-03T00:42:44.338Z,0.00
2018-11-03T00:43:44.221Z,0.00
2018-11-03T00:44:44.269Z,0.00
2018-11-03T00:45:44.121Z,0.00
2018-11-03T00:46:44.096Z,0.00
2018-11-03T00:47:44.029Z,0.00
2018-11-03T00:48:43.985Z,0.00
2018-11-03T00:49:43.937Z,0.00
2018-11-03T00:50:43.890Z,0.00
2018-11-03T00:51:43.843Z,0.00
2018-11-03T00:52:43.801Z,0.00
2018-11-03T00:53:43.752Z,0.00
2018-11-03T00:54:43.705Z,0.00
2018-11-03T00:55:43.659Z,0.00
2018-11-03T00:56:43.712Z,0.00
2018-11-03T00:57:43.565Z,0.00
2018-11-03T00:58:43.519Z,0.00
2018-11-03T00:59:43.493Z,0.00
2018-11-03T01:00:43.427Z,0.00
2018-11-03T01:01:43.385Z,0.00
2018-11-03T01:02:43.435Z,0.00
2018-11-03T01:03:43.289Z,0.00
2018-11-03T01:04:43.241Z,0.00
2018-11-03T01:05:43.200Z,0.00
2018-11-03T01:06:43.150Z,0.00
2018-11-03T01:07:43.105Z,0.00
2018-11-03T01:08:43.057Z,0.00
2018-11-03T01:09:43.010Z,0.00
2018-11-03T01:10:42.974Z,0.00
2018-11-03T01:11:42.920Z,0.00
2018-11-03T01:12:42.871Z,0.00
2018-11-03T01:13:42.825Z,0.00
2018-11-03T01:14:42.885Z,0.00
2018-11-03T01:15:42.735Z,0.00
2018-11-03T01:16:42.686Z,0.00
2018-11-03T01:17:42.640Z,0.00
2018-11-03T01:18:42.594Z,0.00
2018-11-03T01:19:42.547Z,0.00
2018-11-03T01:20:42.601Z,0.00
2018-11-03T01:21:42.456Z,0.00
2018-11-03T01:22:42.410Z,0.00
2018-11-03T01:23:42.502Z,0.00
2018-11-03T01:24:42.326Z,0.00
2018-11-03T01:25:42.270Z,0.00
2018-11-03T01:26:42.223Z,0.00
2018-11-03T01:27:42.177Z,0.00
2018-11-03T01:28:42.131Z,0.00
2018-11-03T01:29:42.084Z,0.00
2018-11-03T01:30:42.044Z,0.00
2018-11-03T01:31:41.993Z,0.00
2018-11-03T01:32:42.061Z,0.00
2018-11-03T01:33:41.901Z,0.00
2018-11-03T01:34:41.855Z,0.00
2018-11-03T01:35:41.809Z,0.00
2018-11-03T01:36:41.763Z,0.00
2018-11-03T01:37:41.714Z,0.00
2018-11-03T01:38:41.769Z,0.00
2018-11-03T01:39:41.627Z,0.00
2018-11-03T01:40:41.575Z,0.00
2018-11-03T01:41:41.530Z,0.00
2018-11-03T01:42:41.491Z,0.00
2018-11-03T01:43:41.437Z,0.00
2018-11-03T01:44:41.491Z,0.00
2018-11-03T01:45:41.352Z,0.00
2018-11-03T01:46:41.298Z,0.00
2018-11-03T01:47:41.253Z,0.00
2018-11-03T01:48:41.204Z,0.00
2018-11-03T01:49:41.159Z,0.00
2018-11-03T01:50:41.220Z,0.00
2018-11-03T01:51:41.065Z,0.00
2018-11-03T01:52:41.021Z,0.00
2018-11-03T01:53:40.973Z,0.00
2018-11-03T01:54:40.928Z,0.00
2018-11-03T01:55:40.982Z,0.00
2018-11-03T01:56:40.835Z,0.00
2018-11-03T01:57:40.789Z,0.00
2018-11-03T01:58:40.741Z,0.00
2018-11-03T01:59:40.698Z,0.00
2018-11-03T02:00:40.649Z,0.00
2018-11-03T02:01:40.703Z,0.00
2018-11-03T02:02:40.558Z,0.00
2018-11-03T02:03:40.516Z,0.00
2018-11-03T02:04:40.465Z,0.00
2018-11-03T02:05:40.420Z,0.00
2018-11-03T02:06:40.371Z,0.00
2018-11-03T02:07:40.326Z,0.00
2018-11-03T02:08:40.278Z,0.00
2018-11-03T02:09:40.232Z,0.00
2018-11-03T02:10:40.186Z,0.00
2018-11-03T02:11:40.144Z,0.00
2018-11-03T02:12:40.093Z,0.00
2018-11-03T02:13:40.051Z,0.00
2018-11-03T02:14:40.003Z,0.00
2018-11-03T02:15:39.954Z,0.00
2018-11-03T02:16:39.907Z,0.00
2018-11-03T02:17:39.863Z,0.00
2018-11-03T02:18:39.822Z,0.00
2018-11-03T02:19:39.870Z,0.00
2018-11-03T02:20:39.755Z,0.00
2018-11-03T02:21:39.676Z,0.00
2018-11-03T02:22:39.631Z,0.00
2018-11-03T02:23:39.583Z,0.00
2018-11-03T02:24:39.537Z,0.00
2018-11-03T02:25:39.592Z,0.00
2018-11-03T02:26:39.571Z,0.00
2018-11-03T02:27:39.403Z,0.00
2018-11-03T02:28:39.352Z,0.00
2018-11-03T02:29:39.306Z,0.00
2018-11-03T02:30:39.462Z,0.00
2018-11-03T02:31:39.386Z,0.00
2018-11-03T02:32:39.169Z,0.00
2018-11-03T02:33:39.120Z,0.00
2018-11-03T02:34:39.079Z,0.00
2018-11-03T02:35:39.028Z,0.00
2018-11-03T02:36:38.980Z,0.00
2018-11-03T02:37:39.033Z,0.00
2018-11-03T02:38:38.889Z,0.00
2018-11-03T02:39:38.841Z,0.00
2018-11-03T02:40:38.795Z,0.00
2018-11-03T02:41:38.758Z,0.00
2018-11-03T02:42:38.703Z,0.00
2018-11-03T02:43:38.660Z,0.00
2018-11-03T02:44:38.614Z,0.00
2018-11-03T02:45:38.570Z,0.00
2018-11-03T02:46:38.518Z,0.00
2018-11-03T02:47:38.472Z,0.00
2018-11-03T02:48:38.434Z,0.00
2018-11-03T02:49:38.391Z,0.00
2018-11-03T02:50:38.341Z,0.00
2018-11-03T02:51:38.289Z,0.00
2018-11-03T02:52:38.242Z,0.00
2018-11-03T02:53:38.194Z,0.00
2018-11-03T02:54:38.348Z,0.00
2018-11-03T02:55:38.105Z,0.00
2018-11-03T02:56:38.054Z,0.00
2018-11-03T02:57:38.013Z,0.00
2018-11-03T02:58:37.963Z,0.00
2018-11-03T02:59:37.916Z,0.00
2018-11-03T03:00:37.870Z,0.00
2018-11-03T03:01:37.929Z,0.00
2018-11-03T03:02:37.782Z,0.00
2018-11-03T03:03:37.731Z,0.00
2018-11-03T03:04:37.685Z,0.00
2018-11-03T03:05:37.642Z,0.00
2018-11-03T03:06:37.593Z,0.00
2018-11-03T03:07:37.546Z,0.00
2018-11-03T03:08:37.500Z,0.00
2018-11-03T03:09:37.458Z,0.00
2018-11-03T03:10:37.413Z,0.00
2018-11-03T03:11:37.363Z,0.00
2018-11-03T03:12:37.319Z,0.00
2018-11-03T03:13:37.370Z,0.00
2018-11-03T03:14:37.222Z,0.00
2018-11-03T03:15:37.174Z,0.00
2018-11-03T03:16:37.128Z,0.00
2018-11-03T03:17:37.089Z,0.00
2018-11-03T03:18:37.108Z,0.00
2018-11-03T03:19:37.090Z,0.00
2018-11-03T03:20:36.950Z,0.00
2018-11-03T03:21:36.898Z,0.00
2018-11-03T03:22:36.852Z,0.00
2018-11-03T03:23:36.805Z,0.00
2018-11-03T03:24:36.758Z,0.00
2018-11-03T03:25:36.813Z,0.00
2018-11-03T03:26:36.666Z,0.00
2018-11-03T03:27:36.629Z,0.00
2018-11-03T03:28:36.604Z,0.00
2018-11-03T03:29:36.594Z,0.00
2018-11-03T03:30:36.500Z,0.00
2018-11-03T03:31:36.536Z,0.00
2018-11-03T03:32:36.388Z,0.00
2018-11-03T03:33:36.343Z,0.00
2018-11-03T03:34:36.298Z,0.00
2018-11-03T03:35:36.256Z,0.00
2018-11-03T03:36:36.205Z,0.00
2018-11-03T03:37:36.159Z,0.00
2018-11-03T03:38:36.113Z,0.00
2018-11-03T03:39:36.070Z,0.00
2018-11-03T03:40:36.019Z,0.00
2018-11-03T03:41:35.974Z,0.00
2018-11-03T03:42:35.926Z,0.00
2018-11-03T03:43:35.888Z,0.00
2018-11-03T03:44:35.836Z,0.00
2018-11-03T03:45:35.788Z,0.00
2018-11-03T03:46:35.745Z,0.00
2018-11-03T03:47:35.699Z,0.00
2018-11-03T03:48:35.651Z,0.00
2018-11-03T03:49:35.704Z,0.00
2018-11-03T03:50:35.559Z,0.00
2018-11-03T03:51:35.511Z,0.00
2018-11-03T03:52:35.467Z,0.00
2018-11-03T03:53:35.423Z,0.00
2018-11-03T03:54:35.379Z,0.00
2018-11-03T03:55:35.429Z,0.00
2018-11-03T03:56:35.286Z,0.00
2018-11-03T03:57:35.241Z,0.00
2018-11-03T03:58:35.190Z,0.00
2018-11-03T03:59:35.144Z,0.00
2018-11-03T04:00:35.100Z,0.00
2018-11-03T04:01:35.156Z,0.00
2018-11-03T04:02:35.008Z,0.00
2018-11-03T04:03:34.961Z,0.00
2018-11-03T04:04:34.914Z,0.00
2018-11-03T04:05:34.872Z,0.00
2018-11-03T04:06:34.848Z,0.00
2018-11-03T04:07:34.774Z,0.00
2018-11-03T04:08:34.729Z,0.00
2018-11-03T04:09:34.687Z,0.00
2018-11-03T04:10:34.647Z,0.00
2018-11-03T04:11:34.591Z,0.00
2018-11-03T04:12:34.545Z,0.00
2018-11-03T04:13:34.497Z,0.00
2018-11-03T04:14:34.451Z,0.00
2018-11-03T04:15:34.405Z,0.00
2018-11-03T04:16:34.360Z,0.00
2018-11-03T04:17:34.321Z,0.00
2018-11-03T04:18:34.268Z,0.00
2018-11-03T04:19:34.323Z,0.00
2018-11-03T04:20:34.176Z,0.00
2018-11-03T04:21:34.128Z,0.00
2018-11-03T04:22:34.150Z,0.00
2018-11-03T04:23:34.037Z,0.00
2018-11-03T04:24:33.996Z,0.00
2018-11-03T04:25:33.949Z,0.00
2018-11-03T04:26:33.899Z,0.00
2018-11-03T04:27:33.853Z,0.00
2018-11-03T04:28:33.815Z,0.00
2018-11-03T04:29:33.767Z,0.00
2018-11-03T04:30:33.715Z,0.00
2018-11-03T04:31:33.768Z,0.00
2018-11-03T04:32:33.628Z,0.00
2018-11-03T04:33:33.578Z,0.00
2018-11-03T04:34:33.530Z,0.00
2018-11-03T04:35:33.485Z,0.00
2018-11-03T04:36:33.439Z,0.00
2018-11-03T04:37:33.394Z,0.00
2018-11-03T04:38:33.347Z,0.00
2018-11-03T04:39:33.300Z,0.00
2018-11-03T04:40:33.255Z,0.00
2018-11-03T04:41:33.208Z,0.00
2018-11-03T04:42:33.162Z,0.00
2018-11-03T04:43:33.125Z,0.00
2018-11-03T04:44:33.070Z,0.00
2018-11-03T04:45:33.177Z,0.00
2018-11-03T04:46:32.978Z,0.00
2018-11-03T04:47:32.931Z,0.00
2018-11-03T04:48:32.886Z,0.00
2018-11-03T04:49:32.977Z,0.00
2018-11-03T04:50:32.798Z,0.00
2018-11-03T04:51:32.749Z,0.00
2018-11-03T04:52:32.700Z,0.00
2018-11-03T04:53:32.660Z,0.00
2018-11-03T04:54:32.609Z,0.00
2018-11-03T04:55:32.571Z,0.00
2018-11-03T04:56:32.516Z,0.00
2018-11-03T04:57:32.502Z,0.00
2018-11-03T04:58:32.425Z,0.00
2018-11-03T04:59:32.382Z,0.00
2018-11-03T05:00:32.332Z,0.00
2018-11-03T05:01:32.286Z,0.00
2018-11-03T05:02:32.287Z,0.00
2018-11-03T05:03:32.194Z,0.00
2018-11-03T05:04:32.153Z,0.00
2018-11-03T05:05:32.102Z,0.00
2018-11-03T05:06:32.057Z,0.00
2018-11-03T05:07:32.110Z,0.00
2018-11-03T05:08:31.964Z,0.00
2018-11-03T05:09:31.918Z,0.00
2018-11-03T05:10:32.019Z,0.00
2018-11-03T05:11:31.826Z,0.00
2018-11-03T05:12:31.986Z,0.00
2018-11-03T05:13:31.842Z,0.00
2018-11-03T05:14:31.687Z,0.00
2018-11-03T05:15:31.642Z,0.00
2018-11-03T05:16:31.595Z,0.00
2018-11-03T05:17:31.550Z,0.00
2018-11-03T05:18:31.509Z,0.00
2018-11-03T05:19:31.482Z,0.00
2018-11-03T05:20:31.411Z,0.00
2018-11-03T05:21:31.365Z,0.00
2018-11-03T05:22:31.320Z,0.00
2018-11-03T05:23:31.278Z,0.00
2018-11-03T05:24:31.228Z,0.00
2018-11-03T05:25:31.282Z,0.00
2018-11-03T05:26:31.140Z,0.00
2018-11-03T05:27:31.095Z,0.00
2018-11-03T05:28:31.044Z,0.00
2018-11-03T05:29:30.997Z,0.00
2018-11-03T05:30:30.950Z,0.00
2018-11-03T05:31:31.005Z,0.00
2018-11-03T05:32:30.859Z,0.00
2018-11-03T05:33:30.842Z,0.00
2018-11-03T05:34:30.765Z,0.00
2018-11-03T05:35:30.745Z,0.00
2018-11-03T05:36:30.673Z,0.00
2018-11-03T05:37:30.727Z,0.00
2018-11-03T05:38:30.582Z,0.00
2018-11-03T05:39:30.536Z,0.00
2018-11-03T05:40:30.488Z,0.00
2018-11-03T05:41:30.447Z,0.00
2018-11-03T05:42:30.397Z,0.00
2018-11-03T05:43:30.451Z,0.00
2018-11-03T05:44:30.310Z,0.00
2018-11-03T05:45:30.258Z,0.00
2018-11-03T05:46:30.346Z,0.00
2018-11-03T05:47:30.165Z,0.00
2018-11-03T05:48:30.119Z,0.00
2018-11-03T05:49:30.173Z,0.00
2018-11-03T05:50:30.026Z,0.00
2018-11-03T05:51:29.979Z,0.00
2018-11-03T05:52:29.953Z,0.00
2018-11-03T05:53:29.892Z,0.00
2018-11-03T05:54:29.843Z,0.00
2018-11-03T05:55:29.896Z,0.00
2018-11-03T05:56:29.750Z,0.00
2018-11-03T05:57:29.702Z,0.00
2018-11-03T05:58:29.656Z,0.00
2018-11-03T05:59:29.614Z,0.00
2018-11-03T06:00:29.563Z,0.00
2018-11-03T06:01:29.618Z,0.00
2018-11-03T06:02:29.470Z,0.00
2018-11-03T06:03:29.425Z,0.00
2018-11-03T06:04:29.378Z,0.00
2018-11-03T06:05:29.333Z,0.00
2018-11-03T06:06:29.296Z,0.00
2018-11-03T06:07:29.342Z,0.00
2018-11-03T06:08:29.193Z,0.00
2018-11-03T06:09:29.146Z,0.00
2018-11-03T06:10:29.101Z,0.00
2018-11-03T06:11:29.062Z,0.00
2018-11-03T06:12:29.008Z,0.00
2018-11-03T06:13:29.062Z,0.00
2018-11-03T06:14:28.917Z,0.00
2018-11-03T06:15:29.023Z,0.00
2018-11-03T06:16:28.824Z,0.00
2018-11-03T06:17:28.778Z,0.00
2018-11-03T06:18:28.731Z,0.00
2018-11-03T06:19:28.691Z,0.00
2018-11-03T06:20:28.643Z,0.00
2018-11-03T06:21:28.598Z,0.00
2018-11-03T06:22:28.612Z,0.00
2018-11-03T06:23:28.565Z,0.00
2018-11-03T06:24:28.454Z,0.00
2018-11-03T06:25:28.506Z,0.00
2018-11-03T06:26:28.361Z,0.00
2018-11-03T06:27:28.315Z,0.00
2018-11-03T06:28:28.268Z,0.00
2018-11-03T06:29:28.222Z,0.00
2018-11-03T06:30:28.180Z,0.00
2018-11-03T06:31:28.129Z,0.00
2018-11-03T06:32:28.134Z,0.00
2018-11-03T06:33:28.037Z,0.00
2018-11-03T06:34:27.993Z,0.00
2018-11-03T06:35:28.062Z,0.00
2018-11-03T06:36:27.898Z,0.00
2018-11-03T06:37:27.852Z,0.00
2018-11-03T06:38:27.810Z,0.00
2018-11-03T06:39:27.759Z,0.00
2018-11-03T06:40:27.717Z,0.00
2018-11-03T06:41:27.665Z,0.00
2018-11-03T06:42:27.619Z,0.00
2018-11-03T06:43:27.675Z,0.00
2018-11-03T06:44:27.528Z,0.00
2018-11-03T06:45:27.481Z,0.00
2018-11-03T06:46:27.462Z,0.00
2018-11-03T06:47:27.498Z,0.00
2018-11-03T06:48:27.344Z,0.00
2018-11-03T06:49:27.397Z,0.00
2018-11-03T06:50:27.255Z,0.00
2018-11-03T06:51:27.204Z,0.00
2018-11-03T06:52:27.157Z,0.00
2018-11-03T06:53:27.110Z,0.00
2018-11-03T06:54:27.064Z,0.00
2018-11-03T06:55:27.019Z,0.00
2018-11-03T06:56:26.972Z,0.00
2018-11-03T06:57:26.926Z,0.00
2018-11-03T06:58:26.880Z,0.00
2018-11-03T06:59:26.833Z,0.00
2018-11-03T07:00:26.791Z,0.00
2018-11-03T07:01:26.744Z,0.00
2018-11-03T07:02:26.693Z,0.00
2018-11-03T07:03:26.650Z,0.00
2018-11-03T07:04:26.606Z,0.00
2018-11-03T07:05:26.559Z,0.00
2018-11-03T07:06:26.508Z,0.00
2018-11-03T07:07:26.469Z,0.00
2018-11-03T07:08:26.415Z,0.00
2018-11-03T07:09:26.369Z,0.00
2018-11-03T07:10:26.374Z,0.00
2018-11-03T07:11:26.358Z,0.00
2018-11-03T07:12:26.455Z,0.00
2018-11-03T07:13:26.416Z,0.00
2018-11-03T07:14:26.138Z,0.00
2018-11-03T07:15:26.091Z,0.00
2018-11-03T07:16:26.046Z,0.00
2018-11-03T07:17:26.351Z,0.00
2018-11-03T07:18:25.951Z,0.00
2018-11-03T07:19:26.006Z,0.00
2018-11-03T07:20:25.863Z,0.00
2018-11-03T07:21:25.832Z,0.00
2018-11-03T07:22:25.767Z,0.00
2018-11-03T07:23:25.723Z,0.00
2018-11-03T07:24:25.678Z,0.00
2018-11-03T07:25:25.733Z,0.00
2018-11-03T07:26:25.586Z,0.00
2018-11-03T07:27:25.537Z,0.00
2018-11-03T07:28:25.489Z,0.00
2018-11-03T07:29:25.460Z,0.00
2018-11-03T07:30:25.396Z,0.00
2018-11-03T07:31:25.450Z,0.00
2018-11-03T07:32:25.304Z,0.00
2018-11-03T07:33:25.258Z,0.00
2018-11-03T07:34:25.210Z,0.00
2018-11-03T07:35:25.166Z,0.00
2018-11-03T07:36:25.119Z,0.00
2018-11-03T07:37:25.073Z,0.00
2018-11-03T07:38:25.031Z,0.00
2018-11-03T07:39:24.980Z,0.00
2018-11-03T07:40:24.935Z,0.00
2018-11-03T07:41:24.962Z,0.00
2018-11-03T07:42:24.877Z,0.00
2018-11-03T07:43:24.794Z,0.00
2018-11-03T07:44:24.748Z,0.00
2018-11-03T07:45:24.702Z,0.00
2018-11-03T07:46:24.656Z,0.00
2018-11-03T07:47:24.609Z,0.00
2018-11-03T07:48:24.652Z,0.00
2018-11-03T07:49:24.625Z,0.00
2018-11-03T07:50:24.474Z,0.00
2018-11-03T07:51:24.429Z,0.00
2018-11-03T07:52:24.383Z,0.00
2018-11-03T07:53:24.339Z,0.00
2018-11-03T07:54:24.374Z,0.00
2018-11-03T07:55:24.340Z,0.00
2018-11-03T07:56:24.193Z,4.00
2018-11-03T07:57:24.148Z,0.00
2018-11-03T07:58:24.100Z,4.00
2018-11-03T07:59:24.059Z,0.00
2018-11-03T08:00:24.059Z,4.00
2018-11-03T08:01:24.063Z,4.00
2018-11-03T08:02:23.918Z,4.00
2018-11-03T08:03:23.870Z,4.00
2018-11-03T08:04:23.825Z,8.00
2018-11-03T08:05:23.782Z,8.00
2018-11-03T08:06:23.731Z,8.00
2018-11-03T08:07:23.792Z,12.00
2018-11-03T08:08:23.664Z,16.00
2018-11-03T08:09:23.594Z,20.00
2018-11-03T08:10:23.546Z,24.00
2018-11-03T08:11:23.506Z,32.00
2018-11-03T08:12:23.456Z,32.00
2018-11-03T08:13:23.517Z,36.00
2018-11-03T08:14:23.362Z,40.00
2018-11-03T08:15:23.320Z,44.00
2018-11-03T08:16:23.273Z,48.00
2018-11-03T08:17:23.225Z,56.00
2018-11-03T08:18:23.183Z,56.00
2018-11-03T08:19:23.236Z,64.00
2018-11-03T08:20:23.089Z,68.00
2018-11-03T08:21:23.040Z,76.00
2018-11-03T08:22:22.998Z,80.00
2018-11-03T08:23:22.947Z,88.00
2018-11-03T08:24:22.900Z,96.00
2018-11-03T08:25:22.956Z,104.00
2018-11-03T08:26:22.813Z,112.00
2018-11-03T08:27:22.763Z,124.00
2018-11-03T08:28:22.764Z,140.00
2018-11-03T08:29:22.670Z,156.00
2018-11-03T08:30:22.624Z,172.00
2018-11-03T08:31:22.733Z,192.00
2018-11-03T08:32:22.537Z,212.00
2018-11-03T08:33:22.488Z,232.00
2018-11-03T08:34:22.438Z,248.00
2018-11-03T08:35:22.395Z,268.00
2018-11-03T08:36:22.347Z,284.00
2018-11-03T08:37:22.401Z,300.00
2018-11-03T08:38:22.254Z,308.00
2018-11-03T08:39:22.229Z,324.00
2018-11-03T08:40:22.163Z,344.00
2018-11-03T08:41:22.117Z,352.00
2018-11-03T08:42:22.071Z,360.00
2018-11-03T08:43:22.124Z,376.00
2018-11-03T08:44:21.979Z,400.00
2018-11-03T08:45:21.932Z,424.00
2018-11-03T08:46:21.887Z,452.00
2018-11-03T08:47:21.840Z,476.00
2018-11-03T08:48:21.939Z,504.00
2018-11-03T08:49:21.847Z,528.00
2018-11-03T08:50:21.712Z,544.00
2018-11-03T08:51:21.654Z,544.00
2018-11-03T08:52:21.640Z,540.00
2018-11-03T08:53:21.562Z,556.00
2018-11-03T08:54:21.516Z,708.00
2018-11-03T08:55:21.571Z,1576.00
2018-11-03T08:56:21.424Z,1640.00
2018-11-03T08:57:21.378Z,1680.00
2018-11-03T08:58:21.332Z,1324.00
2018-11-03T08:59:21.289Z,916.00
2018-11-03T09:00:21.290Z,732.00
2018-11-03T09:01:21.295Z,808.00
2018-11-03T09:02:21.149Z,848.00
2018-11-03T09:03:21.103Z,936.00
2018-11-03T09:04:21.057Z,1048.00
2018-11-03T09:05:21.024Z,1212.00
2018-11-03T09:06:20.995Z,1392.00
2018-11-03T09:07:21.024Z,1572.00
2018-11-03T09:08:20.875Z,1828.00
2018-11-03T09:09:20.827Z,1776.00
2018-11-03T09:10:20.785Z,2040.00
2018-11-03T09:11:20.736Z,2280.00
2018-11-03T09:12:20.690Z,1964.00
2018-11-03T09:13:20.743Z,1696.00
2018-11-03T09:14:20.632Z,1600.00
2018-11-03T09:15:20.710Z,1552.00
2018-11-03T09:16:20.512Z,1556.00
2018-11-03T09:17:20.461Z,1568.00
2018-11-03T09:18:20.417Z,1616.00
2018-11-03T09:19:20.469Z,1692.00
2018-11-03T09:20:20.331Z,1800.00
2018-11-03T09:21:20.282Z,1952.00
2018-11-03T09:22:20.235Z,2100.00
2018-11-03T09:23:20.187Z,2212.00
2018-11-03T09:24:20.145Z,2316.00
2018-11-03T09:25:20.195Z,2416.00
2018-11-03T09:26:20.053Z,2552.00
2018-11-03T09:27:20.012Z,2796.00
2018-11-03T09:28:19.957Z,2956.00
2018-11-03T09:29:19.912Z,3112.00
2018-11-03T09:30:19.867Z,3356.00
2018-11-03T09:31:19.929Z,3624.00
2018-11-03T09:32:19.774Z,3760.00
2018-11-03T09:33:19.729Z,3816.00
2018-11-03T09:34:19.683Z,4064.00
2018-11-03T09:35:19.637Z,3728.00
2018-11-03T09:36:19.600Z,3288.00
2018-11-03T09:37:19.651Z,3148.00
2018-11-03T09:38:19.533Z,3260.00
2018-11-03T09:39:19.544Z,3376.00
2018-11-03T09:40:19.415Z,3716.00
2018-11-03T09:41:19.364Z,3508.00
2018-11-03T09:42:19.317Z,3816.00
2018-11-03T09:43:19.421Z,3840.00
2018-11-03T09:44:19.227Z,4380.00
2018-11-03T09:45:19.180Z,5660.00
2018-11-03T09:46:19.135Z,5432.00
2018-11-03T09:47:19.090Z,10976.00
2018-11-03T09:48:19.056Z,15264.00
2018-11-03T09:49:19.098Z,16384.00
2018-11-03T09:50:18.966Z,16384.00
2018-11-03T09:51:19.054Z,8692.00
2018-11-03T09:52:18.864Z,8388.00
2018-11-03T09:53:18.819Z,8516.00
2018-11-03T09:54:18.779Z,6992.00
2018-11-03T09:55:18.829Z,6412.00
2018-11-03T09:56:18.742Z,7540.00
2018-11-03T09:57:18.643Z,7956.00
2018-11-03T09:58:18.600Z,16064.00
2018-11-03T09:59:18.550Z,7424.00
2018-11-03T10:00:18.511Z,6540.00
2018-11-03T10:01:18.569Z,6136.00
2018-11-03T10:02:18.418Z,5948.00
2018-11-03T10:03:18.373Z,6272.00
2018-11-03T10:04:18.328Z,7160.00
2018-11-03T10:05:18.286Z,15936.00
2018-11-03T10:06:18.266Z,12452.00
2018-11-03T10:07:18.449Z,10308.00
2018-11-03T10:08:18.151Z,11072.00
2018-11-03T10:09:18.109Z,5760.00
2018-11-03T10:10:18.065Z,5248.00
2018-11-03T10:11:18.020Z,4992.00
2018-11-03T10:12:17.979Z,4916.00
2018-11-03T10:13:18.032Z,5020.00
2018-11-03T10:14:17.887Z,5616.00
2018-11-03T10:15:17.847Z,9608.00
2018-11-03T10:16:17.812Z,6260.00
2018-11-03T10:17:17.754Z,8844.00
2018-11-03T10:18:17.713Z,7180.00
2018-11-03T10:19:17.772Z,26496.00
2018-11-03T10:20:17.624Z,7072.00
2018-11-03T10:21:17.576Z,7748.00
2018-11-03T10:22:17.593Z,18656.00
2018-11-03T10:23:17.489Z,20448.00
2018-11-03T10:24:17.444Z,14216.00
2018-11-03T10:25:17.505Z,7608.00
2018-11-03T10:26:17.357Z,10632.00
2018-11-03T10:27:17.313Z,11432.00
2018-11-03T10:28:17.268Z,10600.00
2018-11-03T10:29:17.225Z,10288.00
2018-11-03T10:30:17.181Z,9840.00
2018-11-03T10:31:17.237Z,9516.00
2018-11-03T10:32:17.094Z,9396.00
2018-11-03T10:33:17.050Z,9300.00
2018-11-03T10:34:17.007Z,9180.00
2018-11-03T10:35:16.962Z,9068.00
2018-11-03T10:36:16.924Z,9024.00
2018-11-03T10:37:16.977Z,9116.00
2018-11-03T10:38:16.836Z,9232.00
2018-11-03T10:39:16.793Z,9216.00
2018-11-03T10:40:16.747Z,9312.00
2018-11-03T10:41:16.701Z,9040.00
2018-11-03T10:42:16.712Z,9472.00
2018-11-03T10:43:16.716Z,8640.00
2018-11-03T10:44:16.571Z,8340.00
2018-11-03T10:45:16.552Z,9108.00
2018-11-03T10:46:16.523Z,8944.00
2018-11-03T10:47:16.441Z,8836.00
2018-11-03T10:48:16.402Z,8700.00
2018-11-03T10:49:16.475Z,8584.00
2018-11-03T10:50:16.313Z,8296.00
2018-11-03T10:51:16.270Z,8044.00
2018-11-03T10:52:16.228Z,7768.00
2018-11-03T10:53:16.181Z,8384.00
2018-11-03T10:54:16.139Z,8444.00
2018-11-03T10:55:16.199Z,8376.00
2018-11-03T10:56:16.051Z,8296.00
2018-11-03T10:57:16.010Z,8208.00
2018-11-03T10:58:15.964Z,7968.00
2018-11-03T10:59:15.921Z,8192.00
2018-11-03T11:00:15.878Z,8328.00
2018-11-03T11:01:15.941Z,8292.00
2018-11-03T11:02:15.792Z,8192.00
2018-11-03T11:03:15.756Z,8084.00
2018-11-03T11:04:15.705Z,8240.00
2018-11-03T11:05:15.661Z,8192.00
2018-11-03T11:06:15.624Z,8068.00
2018-11-03T11:07:15.674Z,8060.00
2018-11-03T11:08:15.531Z,8032.00
2018-11-03T11:09:15.488Z,8120.00
2018-11-03T11:10:15.445Z,8224.00
2018-11-03T11:11:15.402Z,8220.00
2018-11-03T11:12:15.396Z,8548.00
2018-11-03T11:13:15.417Z,8788.00
2018-11-03T11:14:15.438Z,8844.00
2018-11-03T11:15:15.234Z,8768.00
2018-11-03T11:16:15.210Z,8648.00
2018-11-03T11:17:15.151Z,7640.00
2018-11-03T11:18:15.099Z,8544.00
2018-11-03T11:19:15.163Z,8772.00
2018-11-03T11:20:15.013Z,8756.00
2018-11-03T11:21:14.974Z,8336.00
2018-11-03T11:22:14.927Z,8240.00
2018-11-03T11:23:14.899Z,8136.00
2018-11-03T11:24:14.999Z,7968.00
2018-11-03T11:25:15.041Z,7752.00
2018-11-03T11:26:14.755Z,7480.00
2018-11-03T11:27:14.713Z,7172.00
2018-11-03T11:28:14.674Z,7004.00
2018-11-03T11:29:14.631Z,6988.00
2018-11-03T11:30:14.685Z,6896.00
2018-11-03T11:31:14.559Z,6808.00
2018-11-03T11:32:14.517Z,6732.00
2018-11-03T11:33:14.458Z,6636.00
2018-11-03T11:34:14.410Z,6592.00
2018-11-03T11:35:14.381Z,6516.00
2018-11-03T11:36:14.429Z,6448.00
2018-11-03T11:37:14.312Z,6436.00
2018-11-03T11:38:14.238Z,6436.00
2018-11-03T11:39:14.201Z,6440.00
2018-11-03T11:40:14.152Z,6376.00
2018-11-03T11:41:14.109Z,6484.00
2018-11-03T11:42:14.166Z,6412.00
2018-11-03T11:43:14.155Z,6360.00
2018-11-03T11:44:13.981Z,6344.00
2018-11-03T11:45:13.940Z,6376.00
2018-11-03T11:46:13.893Z,6512.00
2018-11-03T11:47:13.851Z,6568.00
2018-11-03T11:48:13.909Z,6644.00
2018-11-03T11:49:13.765Z,6584.00
2018-11-03T11:50:13.722Z,6552.00
2018-11-03T11:51:13.683Z,6296.00
2018-11-03T11:52:13.636Z,6288.00
2018-11-03T11:53:13.592Z,6412.00
2018-11-03T11:54:13.648Z,6300.00
2018-11-03T11:55:13.506Z,6212.00
2018-11-03T11:56:13.464Z,6144.00
2018-11-03T11:57:13.451Z,6160.00
2018-11-03T11:58:13.377Z,6124.00
2018-11-03T11:59:13.334Z,6012.00
2018-11-03T12:00:13.392Z,6048.00
2018-11-03T12:01:13.247Z,6004.00
2018-11-03T12:02:13.283Z,5868.00
2018-11-03T12:03:13.167Z,5884.00
2018-11-03T12:04:13.118Z,5916.00
2018-11-03T12:05:13.077Z,5836.00
2018-11-03T12:06:13.167Z,5764.00
2018-11-03T12:07:12.995Z,5760.00
2018-11-03T12:08:12.947Z,5860.00
2018-11-03T12:09:12.905Z,5844.00
2018-11-03T12:10:12.975Z,5852.00
2018-11-03T12:11:12.823Z,5820.00
2018-11-03T12:12:12.880Z,5924.00
2018-11-03T12:13:12.777Z,5972.00
2018-11-03T12:14:12.695Z,5964.00
2018-11-03T12:15:12.647Z,5928.00
2018-11-03T12:16:12.660Z,5988.00
2018-11-03T12:17:12.561Z,5256.00
2018-11-03T12:18:12.625Z,6108.00
2018-11-03T12:19:12.477Z,6148.00
2018-11-03T12:20:12.432Z,6176.00
2018-11-03T12:21:12.391Z,6280.00
2018-11-03T12:22:12.348Z,6224.00
2018-11-03T12:23:12.307Z,6204.00
2018-11-03T12:24:12.361Z,6076.00
2018-11-03T12:25:12.227Z,6176.00
2018-11-03T12:26:12.202Z,6296.00
2018-11-03T12:27:12.139Z,5568.00
2018-11-03T12:28:12.091Z,6340.00
2018-11-03T12:29:12.048Z,5708.00
2018-11-03T12:30:12.130Z,5880.00
2018-11-03T12:31:11.966Z,6140.00
2018-11-03T12:32:11.920Z,6108.00
2018-11-03T12:33:11.878Z,5816.00
2018-11-03T12:34:11.840Z,5908.00
2018-11-03T12:35:11.797Z,5920.00
2018-11-03T12:36:11.852Z,5992.00
2018-11-03T12:37:11.707Z,5128.00
2018-11-03T12:38:11.670Z,6080.00
2018-11-03T12:39:11.622Z,4624.00
2018-11-03T12:40:11.581Z,4976.00
2018-11-03T12:41:11.585Z,6256.00
2018-11-03T12:42:11.596Z,4740.00
2018-11-03T12:43:11.453Z,5352.00
2018-11-03T12:44:11.421Z,5356.00
2018-11-03T12:45:11.368Z,4528.00
2018-11-03T12:46:11.349Z,6036.00
2018-11-03T12:47:11.284Z,5004.00
2018-11-03T12:48:11.389Z,5944.00
2018-11-03T12:49:11.205Z,5864.00
2018-11-03T12:50:11.158Z,5880.00
2018-11-03T12:51:11.116Z,5900.00